Ardmore, Alabama
Current Conditions -  °F | °C
As of 3:35 PM on Friday 24 Oct 2014 (Local Time) from KFYM Reporting Station
Clear Clear  
Wind Chill: 19°   Ceiling: Unl
Heat Index: 19°   Visibility: 10mi
Dew Point:   Wind: 9mph
Humidity: 37%   Direction: 350°N
Pressure: 30.06"   Gusts: NA
Location:  34.99°N, 86.85°W
Report Text: KFYM 242035Z AUTO 35008KT 10SM CLR 19/04 A3006 RMK
Loading
Personal Weather Stations






























Interactive Weather Map New forecast layout! Learn more

10-Day Weather Forecast

Advertisements
Track Severe Weather on mobile